sensor_id;sensor_type;location;lat;lon;timestamp;pressure;altitude;pressure_sealevel;temperature;humidity
5777;BME280;2914;42.668;23.346;2023-05-23T00:00:09;94393.44;;;15.47;100.00
5777;BME280;2914;42.668;23.346;2023-05-23T00:02:40;94393.80;;;15.43;100.00
5777;BME280;2914;42.668;23.346;2023-05-23T00:05:10;94390.83;;;15.38;100.00
5777;BME280;2914;42.668;23.346;2023-05-23T00:07:39;94391.02;;;15.37;100.00
5777;BME280;2914;42.668;23.346;2023-05-23T00:10:10;94383.13;;;15.20;100.00
5777;BME280;2914;42.668;23.346;2023-05-23T00:12:39;94381.91;;;15.00;100.00
5777;BME280;2914;42.668;23.346;2023-05-23T00:15:10;94393.72;;;14.93;100.00
5777;BME280;2914;42.668;23.346;2023-05-23T00:17:40;94388.34;;;15.09;100.00
5777;BME280;2914;42.668;23.346;2023-05-23T00:20:10;94384.03;;;15.13;100.00
5777;BME280;2914;42.668;23.346;2023-05-23T00:22:39;94380.50;;;15.16;100.00
5777;BME280;2914;42.668;23.346;2023-05-23T00:25:09;94383.98;;;15.21;100.00
5777;BME280;2914;42.668;23.346;2023-05-23T00:27:38;94388.09;;;15.23;100.00
5777;BME280;2914;42.668;23.346;2023-05-23T00:30:09;94382.95;;;15.22;100.00
5777;BME280;2914;42.668;23.346;2023-05-23T00:32:38;94376.98;;;15.24;100.00
5777;BME280;2914;42.668;23.346;2023-05-23T00:35:09;94382.78;;;15.23;100.00
5777;BME280;2914;42.668;23.346;2023-05-23T00:37:38;94382.63;;;15.25;100.00
5777;BME280;2914;42.668;23.346;2023-05-23T00:40:51;94379.77;;;15.31;100.00
5777;BME280;2914;42.668;23.346;2023-05-23T00:43:20;94381.94;;;15.27;100.00
5777;BME280;2914;42.668;23.346;2023-05-23T00:45:50;94377.46;;;15.23;100.00
5777;BME280;2914;42.668;23.346;2023-05-23T00:48:19;94381.13;;;15.26;100.00
5777;BME280;2914;42.668;23.346;2023-05-23T00:50:48;94375.63;;;15.28;100.00
5777;BME280;2914;42.668;23.346;2023-05-23T00:53:17;94375.30;;;15.27;100.00
5777;BME280;2914;42.668;23.346;2023-05-23T00:55:46;94374.30;;;15.28;100.00
5777;BME280;2914;42.668;23.346;2023-05-23T00:58:16;94386.28;;;15.24;100.00
5777;BME280;2914;42.668;23.346;2023-05-23T01:02:04;94378.64;;;15.25;100.00
5777;BME280;2914;42.668;23.346;2023-05-23T01:04:34;94376.83;;;15.21;100.00
5777;BME280;2914;42.668;23.346;2023-05-23T01:07:04;94380.32;;;15.18;99.91
5777;BME280;2914;42.668;23.346;2023-05-23T01:09:33;94382.67;;;15.17;100.00
5777;BME280;2914;42.668;23.346;2023-05-23T01:17:58;94386.89;;;15.30;100.00
5777;BME280;2914;42.668;23.346;2023-05-23T01:20:30;94383.45;;;15.25;99.78
5777;BME280;2914;42.668;23.346;2023-05-23T01:23:28;94375.98;;;15.25;99.77
5777;BME280;2914;42.668;23.346;2023-05-23T01:26:21;94382.32;;;15.20;99.41
5777;BME280;2914;42.668;23.346;2023-05-23T01:28:54;94378.84;;;15.15;99.15
5777;BME280;2914;42.668;23.346;2023-05-23T01:31:24;94384.69;;;15.10;99.02
5777;BME280;2914;42.668;23.346;2023-05-23T01:33:55;94386.70;;;15.08;99.77
5777;BME280;2914;42.668;23.346;2023-05-23T01:36:25;94388.38;;;15.01;100.00
5777;BME280;2914;42.668;23.346;2023-05-23T01:38:55;94382.60;;;14.98;100.00
5777;BME280;2914;42.668;23.346;2023-05-23T01:41:23;94385.26;;;14.98;100.00
5777;BME280;2914;42.668;23.346;2023-05-23T01:43:53;94386.91;;;14.95;100.00
5777;BME280;2914;42.668;23.346;2023-05-23T01:46:22;94386.08;;;14.98;100.00
5777;BME280;2914;42.668;23.346;2023-05-23T01:48:54;94382.27;;;14.97;100.00
5777;BME280;2914;42.668;23.346;2023-05-23T01:51:23;94379.12;;;14.93;100.00
5777;BME280;2914;42.668;23.346;2023-05-23T01:53:53;94369.19;;;14.91;100.00
5777;BME280;2914;42.668;23.346;2023-05-23T01:56:23;94372.34;;;14.86;100.00
5777;BME280;2914;42.668;23.346;2023-05-23T01:58:53;94373.23;;;14.74;100.00
5777;BME280;2914;42.668;23.346;2023-05-23T02:01:22;94366.92;;;14.80;100.00
5777;BME280;2914;42.668;23.346;2023-05-23T02:03:51;94368.55;;;14.81;100.00
5777;BME280;2914;42.668;23.346;2023-05-23T02:06:20;94370.73;;;14.81;100.00
5777;BME280;2914;42.668;23.346;2023-05-23T02:08:49;94375.02;;;14.82;100.00
5777;BME280;2914;42.668;23.346;2023-05-23T02:12:22;94362.94;;;14.80;100.00
5777;BME280;2914;42.668;23.346;2023-05-23T02:14:52;94374.38;;;14.80;100.00
5777;BME280;2914;42.668;23.346;2023-05-23T02:17:21;94375.57;;;14.69;100.00
5777;BME280;2914;42.668;23.346;2023-05-23T02:19:51;94376.27;;;14.67;100.00
5777;BME280;2914;42.668;23.346;2023-05-23T02:22:23;94378.41;;;14.68;100.00
5777;BME280;2914;42.668;23.346;2023-05-23T02:24:53;94377.59;;;14.67;100.00
5777;BME280;2914;42.668;23.346;2023-05-23T02:27:22;94377.07;;;14.59;100.00
5777;BME280;2914;42.668;23.346;2023-05-23T02:29:51;94373.62;;;14.55;100.00
